TimeEST,TemperatureF,Dew PointF,Humidity,Sea Level PressureIn,VisibilityMPH,Wind Direction,Wind SpeedMPH,Gust SpeedMPH,PrecipitationIn,Events,Conditions,WindDirDegrees,DateUTC
12:00 AM,80.6,71.6,74,29.91,6.2,North,3.5,-,N/A,,Scattered Clouds,360,2013-11-03 04:00:00
1:00 AM,77.0,71.6,83,29.90,6.2,Variable,2.3,-,N/A,,Mostly Cloudy,0,2013-11-03 05:00:00
1:00 AM,77,74,89,29.88,9,Calm,Calm,,,,Scattered Clouds,,2013-11-03 06:00:00
1:00 AM,77.0,75.2,94,29.88,6.2,Calm,Calm,-,N/A,,Partly Cloudy,0,2013-11-03 06:00:00
4:00 AM,76,73,88,29.86,9,Calm,Calm,,,,Scattered Clouds,,2013-11-03 09:00:00
4:00 AM,77.0,73.4,89,29.85,6.2,Calm,Calm,-,N/A,,Partly Cloudy,0,2013-11-03 09:00:00
6:00 AM,78.8,69.8,74,29.87,6.2,North,3.5,-,N/A,,Partly Cloudy,350,2013-11-03 11:00:00
7:00 AM,79,71,72,29.90,9,NNW,4.6,,,,Partly Cloudy,330,2013-11-03 12:00:00
7:00 AM,78.8,71.6,78,29.90,6.2,NNW,4.6,-,N/A,,Partly Cloudy,330,2013-11-03 12:00:00
8:00 AM,80.6,71.6,74,29.90,6.2,NNE,6.9,-,N/A,,Partly Cloudy,20,2013-11-03 13:00:00
9:00 AM,82.4,71.6,70,29.91,6.2,NNE,9.2,-,N/A,,Partly Cloudy,20,2013-11-03 14:00:00
10:00 AM,84.2,75.2,74,29.93,6.2,NNE,10.4,-,N/A,,Scattered Clouds,20,2013-11-03 15:00:00
11:00 AM,82.4,71.6,70,29.92,6.2,NNE,10.4,-,N/A,,Partly Cloudy,20,2013-11-03 16:00:00
12:00 PM,82.4,71.6,70,29.91,6.2,North,11.5,-,N/A,,Scattered Clouds,360,2013-11-03 17:00:00
1:00 PM,85,74,62,29.91,9,NNE,13.8,,,,Partly Cloudy,20,2013-11-03 18:00:00
1:00 PM,84.2,73.4,70,29.90,6.2,NNE,13.8,-,N/A,,Scattered Clouds,20,2013-11-03 18:00:00
2:00 PM,82.4,69.8,66,29.89,6.2,NE,11.5,-,N/A,,Scattered Clouds,40,2013-11-03 19:00:00
3:00 PM,-9999,-9999,N/A,-9999,6.2,NNE,16.1,-,N/A,,Scattered Clouds,30,2013-11-03 20:00:00
4:00 PM,81,74,74,29.89,9,NNE,13.8,,,,Mostly Cloudy,30,2013-11-03 21:00:00
4:00 PM,80.6,73.4,79,29.89,6.2,NNE,13.8,-,N/A,,Scattered Clouds,30,2013-11-03 21:00:00
5:00 PM,78.8,69.8,74,29.90,6.2,NE,11.5,-,N/A,,Scattered Clouds,40,2013-11-03 22:00:00
6:00 PM,78.8,69.8,74,29.91,6.2,NNE,11.5,-,N/A,,Scattered Clouds,30,2013-11-03 23:00:00
7:00 PM,80,69,63,29.93,8,NNE,16.1,,,,Partly Cloudy,30,2013-11-04 00:00:00
7:00 PM,78.8,69.8,74,29.93,6.2,NNE,16.1,-,N/A,,Scattered Clouds,30,2013-11-04 00:00:00
8:00 PM,78.8,68.0,69,29.95,6.2,NE,13.8,-,N/A,,Scattered Clouds,50,2013-11-04 01:00:00
9:00 PM,78.8,68.0,69,29.96,6.2,NE,16.1,-,N/A,,Mostly Cloudy,50,2013-11-04 02:00:00
10:00 PM,80,69,61,29.98,8,ENE,16.1,,,,Partly Cloudy,60,2013-11-04 03:00:00
10:00 PM,78.8,69.8,74,29.98,6.2,ENE,16.1,-,N/A,,Scattered Clouds,60,2013-11-04 03:00:00